createdAt,value
2023-05-12T00:01:15.910Z,14.90
2023-05-12T00:03:46.130Z,14.80
2023-05-12T00:06:14.432Z,14.80
2023-05-12T00:08:45.299Z,14.80
2023-05-12T00:11:13.449Z,14.80
2023-05-12T00:13:43.558Z,14.80
2023-05-12T00:16:15.836Z,14.80
2023-05-12T00:18:43.987Z,14.80
2023-05-12T00:21:13.548Z,14.80
2023-05-12T00:23:41.698Z,14.80
2023-05-12T00:26:09.917Z,14.70
2023-05-12T00:28:40.130Z,14.70
2023-05-12T00:31:09.781Z,14.70
2023-05-12T00:33:37.928Z,14.70
2023-05-12T00:36:06.798Z,14.70
2023-05-12T00:38:37.455Z,14.70
2023-05-12T00:41:05.742Z,14.70
2023-05-12T00:43:34.107Z,14.70
2023-05-12T00:46:03.682Z,14.70
2023-05-12T00:48:38.685Z,14.60
2023-05-12T00:51:07.250Z,14.60
2023-05-12T00:53:47.799Z,14.60
2023-05-12T00:56:19.807Z,14.60
2023-05-12T00:58:47.974Z,14.60
2023-05-12T01:01:18.689Z,14.60
2023-05-12T01:03:48.214Z,14.60
2023-05-12T01:06:23.271Z,14.60
2023-05-12T01:08:51.563Z,14.60
2023-05-12T01:11:19.552Z,14.50
2023-05-12T01:13:47.391Z,14.50
2023-05-12T01:16:18.266Z,14.50
2023-05-12T01:18:51.320Z,14.50
2023-05-12T01:21:20.299Z,14.50
2023-05-12T01:23:57.690Z,14.50
2023-05-12T01:26:27.532Z,14.50
2023-05-12T01:28:55.707Z,14.50
2023-05-12T01:31:23.995Z,14.50
2023-05-12T01:33:52.086Z,14.50
2023-05-12T01:36:20.055Z,14.40
2023-05-12T01:38:47.944Z,14.40
2023-05-12T01:41:16.541Z,14.40
2023-05-12T01:43:46.065Z,14.40
2023-05-12T01:46:14.021Z,14.40
2023-05-12T01:48:43.676Z,14.40
2023-05-12T01:51:11.652Z,14.40
2023-05-12T01:53:39.565Z,14.40
2023-05-12T01:56:07.885Z,14.40
2023-05-12T01:58:35.762Z,14.40
2023-05-12T02:01:05.212Z,14.30
2023-05-12T02:03:33.154Z,14.40
2023-05-12T02:06:03.646Z,14.30
2023-05-12T02:08:31.589Z,14.30
2023-05-12T02:11:06.950Z,14.30
2023-05-12T02:13:35.138Z,14.30
2023-05-12T02:16:05.097Z,14.30
2023-05-12T02:18:33.441Z,14.30
2023-05-12T02:21:01.451Z,14.30
2023-05-12T02:23:29.319Z,14.30
2023-05-12T02:25:57.171Z,14.30
2023-05-12T02:28:25.096Z,14.30
2023-05-12T02:30:53.161Z,14.30
2023-05-12T02:33:23.073Z,14.30
2023-05-12T02:35:51.261Z,14.20
2023-05-12T02:38:19.617Z,14.20
2023-05-12T02:40:48.564Z,14.20
2023-05-12T02:43:16.433Z,14.20
2023-05-12T02:45:44.480Z,14.20
2023-05-12T02:48:12.404Z,14.20
2023-05-12T02:50:41.780Z,14.20
2023-05-12T02:53:09.704Z,14.10
2023-05-12T02:55:37.756Z,14.20
2023-05-12T02:58:05.713Z,14.20
2023-05-12T03:00:33.667Z,14.10
2023-05-12T03:03:01.739Z,14.10
2023-05-12T03:05:29.764Z,14.10
2023-05-12T03:07:59.463Z,14.10
2023-05-12T03:10:27.934Z,14.10
2023-05-12T03:12:55.960Z,14.10
2023-05-12T03:15:24.296Z,14.10
2023-05-12T03:17:52.367Z,14.10
2023-05-12T03:20:20.785Z,14.10
2023-05-12T03:22:48.993Z,14.10
2023-05-12T03:25:18.336Z,14.00
2023-05-12T03:27:46.330Z,14.00
2023-05-12T03:30:15.193Z,14.00
2023-05-12T03:32:44.282Z,14.00
2023-05-12T03:35:12.248Z,14.00
2023-05-12T03:37:40.520Z,14.00
2023-05-12T03:40:09.590Z,14.00
2023-05-12T03:42:38.994Z,14.00
2023-05-12T03:45:07.938Z,13.90
2023-05-12T03:47:36.238Z,14.00
2023-05-12T03:50:04.773Z,13.90
2023-05-12T03:52:32.751Z,13.90
2023-05-12T03:55:00.779Z,13.90
2023-05-12T03:57:28.868Z,13.90
2023-05-12T03:59:58.220Z,13.90
2023-05-12T04:02:26.374Z,13.90
2023-05-12T04:04:54.517Z,13.90
2023-05-12T04:07:22.612Z,13.90
2023-05-12T04:09:59.578Z,13.90
2023-05-12T04:12:27.808Z,13.90
2023-05-12T04:14:57.470Z,13.90
2023-05-12T04:17:25.385Z,13.80
2023-05-12T04:19:53.854Z,13.90
2023-05-12T04:22:25.547Z,13.80
2023-05-12T04:25:04.112Z,13.80
2023-05-12T04:27:32.053Z,13.80
2023-05-12T04:30:01.723Z,13.80
2023-05-12T04:32:29.619Z,13.80
2023-05-12T04:34:57.500Z,13.80
2023-05-12T04:37:25.337Z,13.80
2023-05-12T04:39:53.454Z,13.80
2023-05-12T04:42:21.331Z,13.80
2023-05-12T04:44:49.247Z,13.80
2023-05-12T04:47:18.623Z,13.80
2023-05-12T04:49:46.719Z,13.80
2023-05-12T04:52:14.644Z,13.80
2023-05-12T04:54:42.389Z,13.80
2023-05-12T04:57:10.123Z,13.80
2023-05-12T04:59:43.512Z,13.80
2023-05-12T05:02:12.780Z,13.70
2023-05-12T05:04:42.124Z,13.70
2023-05-12T05:07:10.126Z,13.80
2023-05-12T05:09:37.979Z,13.80
2023-05-12T05:12:07.074Z,13.70
2023-05-12T05:14:35.006Z,13.80
2023-05-12T05:17:03.041Z,13.80
2023-05-12T05:22:05.045Z,13.80
2023-05-12T05:24:33.341Z,13.70
2023-05-12T05:27:01.208Z,13.70
2023-05-12T05:29:29.004Z,13.80
2023-05-12T05:31:57.112Z,13.70
2023-05-12T05:34:24.955Z,13.70
2023-05-12T05:36:52.797Z,13.70
2023-05-12T05:39:22.542Z,13.80
2023-05-12T05:41:50.707Z,13.70
2023-05-12T05:44:18.548Z,13.80
2023-05-12T05:46:46.382Z,13.80
2023-05-12T05:49:14.238Z,13.80
2023-05-12T05:51:42.181Z,13.70
2023-05-12T05:54:10.063Z,13.80
2023-05-12T05:56:39.344Z,13.70
2023-05-12T05:59:07.421Z,13.80
2023-05-12T06:01:35.245Z,13.80
2023-05-12T06:04:03.524Z,13.80
2023-05-12T06:06:31.601Z,13.80
2023-05-12T06:08:59.458Z,13.80
2023-05-12T06:11:27.247Z,13.80
2023-05-12T06:13:56.420Z,13.80
2023-05-12T06:16:24.286Z,13.80
2023-05-12T06:18:52.542Z,13.80
2023-05-12T06:21:20.412Z,13.80
2023-05-12T06:23:48.260Z,13.80
2023-05-12T06:26:16.477Z,13.90
2023-05-12T06:28:44.361Z,13.90
2023-05-12T06:31:13.528Z,13.90
2023-05-12T06:33:41.671Z,13.90
2023-05-12T06:36:10.606Z,13.90
2023-05-12T06:38:38.372Z,13.90
2023-05-12T06:41:06.671Z,13.90
2023-05-12T06:43:34.525Z,13.90
2023-05-12T06:46:02.384Z,14.00
2023-05-12T06:48:31.644Z,14.00
2023-05-12T06:50:59.521Z,14.00
2023-05-12T06:53:27.412Z,14.00
2023-05-12T06:55:55.394Z,14.00
2023-05-12T06:58:23.254Z,14.00
2023-05-12T07:00:51.131Z,14.10
2023-05-12T07:03:19.043Z,14.10
2023-05-12T07:05:48.319Z,14.10
2023-05-12T07:08:16.915Z,14.10
2023-05-12T07:10:44.803Z,14.20
2023-05-12T07:13:12.863Z,14.20
2023-05-12T07:15:40.732Z,14.20
2023-05-12T07:18:08.679Z,14.30
2023-05-12T07:20:37.110Z,14.30
2023-05-12T07:23:06.369Z,14.30
2023-05-12T07:25:34.188Z,14.40
2023-05-12T07:28:02.311Z,14.40
2023-05-12T07:30:30.235Z,14.40
2023-05-12T07:32:58.460Z,14.50
2023-05-12T07:35:26.258Z,14.50
2023-05-12T07:37:54.336Z,14.50
2023-05-12T07:40:23.612Z,14.60
2023-05-12T07:42:51.913Z,14.60
2023-05-12T07:45:23.033Z,14.60
2023-05-12T07:47:51.576Z,14.70
2023-05-12T07:50:19.672Z,14.70
2023-05-12T07:52:49.031Z,14.80
2023-05-12T07:55:17.636Z,14.80
2023-05-12T07:57:46.874Z,14.90
2023-05-12T08:00:15.659Z,14.90
2023-05-12T08:02:44.366Z,15.00
2023-05-12T08:05:12.605Z,15.00
2023-05-12T08:07:43.438Z,15.00
2023-05-12T08:10:12.882Z,15.10
2023-05-12T08:12:41.192Z,15.10
2023-05-12T08:15:12.378Z,15.20
2023-05-12T08:17:40.228Z,15.20
2023-05-12T08:20:09.122Z,15.30
2023-05-12T08:22:37.159Z,15.30
2023-05-12T08:25:05.954Z,15.40
2023-05-12T08:27:33.834Z,15.50
2023-05-12T08:30:01.674Z,15.50
2023-05-12T08:32:30.868Z,15.60
2023-05-12T08:34:58.788Z,15.70
2023-05-12T08:37:26.962Z,15.70
2023-05-12T08:39:54.882Z,15.80
2023-05-12T08:42:32.012Z,15.80
2023-05-12T08:45:01.450Z,15.90
2023-05-12T08:47:32.678Z,16.00
2023-05-12T08:50:02.025Z,16.00
2023-05-12T08:52:31.055Z,16.10
2023-05-12T08:55:00.810Z,16.20
2023-05-12T08:57:29.771Z,16.20
2023-05-12T08:59:59.264Z,16.30
2023-05-12T09:02:44.678Z,16.40
2023-05-12T09:05:20.123Z,16.40
2023-05-12T09:07:50.534Z,16.50
2023-05-12T09:10:33.483Z,16.60
2023-05-12T09:13:05.568Z,16.60
2023-05-12T09:15:37.259Z,16.70
2023-05-12T09:18:06.670Z,16.80
2023-05-12T09:20:34.923Z,16.80
2023-05-12T09:23:16.203Z,16.90
2023-05-12T09:25:43.982Z,17.00
2023-05-12T09:28:12.497Z,17.00
2023-05-12T09:33:36.897Z,17.20
2023-05-12T09:36:04.960Z,17.30
2023-05-12T09:38:32.758Z,17.30
2023-05-12T09:41:00.608Z,17.40
2023-05-12T09:43:28.350Z,17.40
2023-05-12T09:45:56.374Z,17.50
2023-05-12T09:54:12.492Z,17.70
2023-05-12T09:56:41.733Z,17.70
2023-05-12T09:59:12.339Z,17.80
2023-05-12T10:01:40.470Z,17.80
2023-05-12T10:04:09.381Z,17.90
2023-05-12T10:06:43.265Z,17.90
2023-05-12T10:09:16.441Z,18.00
2023-05-12T10:11:45.155Z,18.00
2023-05-12T10:14:13.607Z,18.10
2023-05-12T10:16:42.254Z,18.10
2023-05-12T10:22:07.953Z,18.20
2023-05-12T10:24:36.511Z,18.30
2023-05-12T10:27:06.520Z,18.40
2023-05-12T10:29:35.996Z,18.40
2023-05-12T10:32:03.957Z,18.40
2023-05-12T10:34:34.116Z,18.50
2023-05-12T10:37:05.983Z,18.50
2023-05-12T10:39:35.328Z,18.50
2023-05-12T10:42:06.142Z,18.60
2023-05-12T10:44:33.939Z,18.70
2023-05-12T10:47:01.658Z,18.70
2023-05-12T10:49:41.010Z,18.70
2023-05-12T10:52:09.190Z,18.70
2023-05-12T11:00:29.555Z,18.80
2023-05-12T11:03:01.248Z,18.80
2023-05-12T11:05:36.214Z,18.80
2023-05-12T11:08:04.838Z,18.90
2023-05-12T11:10:35.640Z,18.90
2023-05-12T11:13:04.433Z,18.90
2023-05-12T11:15:32.281Z,18.90
2023-05-12T11:18:03.574Z,18.90
2023-05-12T11:23:30.137Z,18.90
2023-05-12T11:25:59.269Z,18.90
2023-05-12T11:28:27.076Z,18.90
2023-05-12T11:31:00.563Z,19.00
2023-05-12T11:33:28.287Z,19.00
2023-05-12T11:35:56.025Z,19.00
2023-05-12T11:38:24.703Z,19.00
2023-05-12T11:40:52.490Z,19.00
2023-05-12T11:43:23.034Z,19.00
2023-05-12T11:45:51.031Z,19.00
2023-05-12T11:48:18.928Z,19.10
2023-05-12T11:50:47.710Z,19.10
2023-05-12T11:53:20.386Z,19.10
2023-05-12T11:55:49.355Z,19.20
2023-05-12T11:58:23.755Z,19.20
2023-05-12T12:00:53.167Z,19.20
2023-05-12T12:03:21.330Z,19.30
2023-05-12T12:06:01.748Z,19.30
2023-05-12T12:08:29.673Z,19.30
2023-05-12T12:10:57.470Z,19.30
2023-05-12T12:13:29.148Z,19.30
2023-05-12T12:15:58.288Z,19.40
2023-05-12T12:18:26.865Z,19.40
2023-05-12T12:20:56.722Z,19.40
2023-05-12T12:23:24.421Z,19.40
2023-05-12T12:25:52.330Z,19.50
2023-05-12T12:28:21.764Z,19.70
2023-05-12T12:30:49.487Z,19.80
2023-05-12T12:33:20.458Z,19.80
2023-05-12T12:35:51.746Z,19.90
2023-05-12T12:38:19.540Z,20.00
2023-05-12T12:40:47.464Z,20.00
2023-05-12T12:43:16.150Z,20.10
2023-05-12T12:45:43.952Z,20.20
2023-05-12T12:48:11.765Z,20.20
2023-05-12T12:56:29.393Z,20.40
2023-05-12T12:58:57.513Z,20.30
2023-05-12T13:01:25.294Z,20.30
2023-05-12T13:03:55.564Z,20.30
2023-05-12T13:06:24.625Z,20.40
2023-05-12T13:08:52.736Z,20.50
2023-05-12T13:11:23.957Z,20.60
2023-05-12T13:13:51.685Z,20.70
2023-05-12T13:16:19.584Z,20.80
2023-05-12T13:18:49.097Z,20.90
2023-05-12T13:21:18.598Z,21.00
2023-05-12T13:23:47.653Z,21.00
2023-05-12T13:26:16.871Z,21.00
2023-05-12T13:28:44.590Z,21.00
2023-05-12T13:31:12.505Z,20.90
2023-05-12T13:33:40.609Z,20.90
2023-05-12T13:36:08.949Z,20.80
2023-05-12T13:38:37.129Z,20.70
2023-05-12T13:41:07.006Z,20.60
2023-05-12T13:43:34.750Z,20.60
2023-05-12T13:46:02.534Z,20.60
2023-05-12T13:48:32.793Z,20.60
2023-05-12T13:51:00.520Z,20.80
2023-05-12T13:53:28.336Z,20.80
2023-05-12T13:55:57.081Z,20.90
2023-05-12T13:58:26.169Z,21.00
2023-05-12T14:00:54.108Z,21.00
2023-05-12T14:03:22.940Z,21.00
2023-05-12T14:05:50.782Z,21.00
2023-05-12T14:08:18.514Z,21.10
2023-05-12T14:10:46.965Z,21.00
2023-05-12T14:13:14.685Z,20.90
2023-05-12T14:15:49.208Z,20.90
2023-05-12T14:18:19.306Z,21.00
2023-05-12T14:20:47.357Z,21.10
2023-05-12T14:23:15.599Z,21.10
2023-05-12T14:25:44.988Z,21.10
2023-05-12T14:28:12.803Z,21.10
2023-05-12T14:30:40.741Z,21.00
2023-05-12T14:33:10.037Z,21.10
2023-05-12T14:35:37.970Z,21.00
2023-05-12T14:38:05.724Z,21.00
2023-05-12T14:40:33.614Z,20.90
2023-05-12T14:43:01.421Z,20.90
2023-05-12T14:45:31.461Z,20.90
2023-05-12T14:47:59.341Z,20.90
2023-05-12T14:50:28.949Z,20.80
2023-05-12T14:52:57.290Z,20.80
2023-05-12T14:55:25.423Z,20.80
2023-05-12T14:57:53.178Z,20.90
2023-05-12T15:00:21.854Z,20.90
2023-05-12T15:02:49.927Z,21.00
2023-05-12T15:05:17.807Z,21.10
2023-05-12T15:07:46.938Z,21.10
2023-05-12T15:10:14.685Z,21.10
2023-05-12T15:12:42.733Z,21.10
2023-05-12T15:15:11.487Z,21.10
2023-05-12T15:17:39.362Z,21.10
2023-05-12T15:20:09.733Z,21.00
2023-05-12T15:22:37.774Z,21.00
2023-05-12T15:25:08.308Z,21.00
2023-05-12T15:27:36.510Z,21.00
2023-05-12T15:30:04.742Z,21.00
2023-05-12T15:32:32.491Z,21.00
2023-05-12T15:35:00.261Z,21.10
2023-05-12T15:37:28.049Z,21.10
2023-05-12T15:39:55.872Z,21.10
2023-05-12T15:42:29.929Z,21.20
2023-05-12T15:45:00.780Z,21.20
2023-05-12T15:47:28.526Z,21.20
2023-05-12T15:49:56.366Z,21.20
2023-05-12T15:52:24.753Z,21.20
2023-05-12T15:54:52.501Z,21.10
2023-05-12T15:57:20.219Z,21.10
2023-05-12T15:59:50.197Z,21.10
2023-05-12T16:02:19.112Z,21.00
2023-05-12T16:04:47.428Z,21.00
2023-05-12T16:07:15.222Z,21.00
2023-05-12T16:09:42.964Z,21.00
2023-05-12T16:12:11.296Z,21.00
2023-05-12T16:14:39.075Z,21.10
2023-05-12T16:17:08.676Z,21.10
2023-05-12T16:19:36.636Z,21.20
2023-05-12T16:22:04.447Z,21.20
2023-05-12T16:24:32.192Z,21.20
2023-05-12T16:27:00.149Z,21.20
2023-05-12T16:29:29.067Z,21.20
2023-05-12T16:31:56.806Z,21.10
2023-05-12T16:34:25.974Z,21.20
2023-05-12T16:36:53.729Z,21.20
2023-05-12T16:39:21.461Z,21.20
2023-05-12T16:41:49.217Z,21.30
2023-05-12T16:44:16.958Z,21.30
2023-05-12T16:46:44.795Z,21.30
2023-05-12T16:49:12.622Z,21.30
2023-05-12T16:51:41.720Z,21.30
2023-05-12T16:54:09.910Z,21.30
2023-05-12T16:56:37.648Z,21.30
2023-05-12T16:59:05.378Z,21.30
2023-05-12T17:01:34.373Z,21.30
2023-05-12T17:04:02.522Z,21.20
2023-05-12T17:06:30.807Z,21.20
2023-05-12T17:08:59.893Z,21.20
2023-05-12T17:11:27.640Z,21.20
2023-05-12T17:13:55.711Z,21.20
2023-05-12T17:16:23.510Z,21.20
2023-05-12T17:21:21.991Z,21.20
2023-05-12T17:23:50.476Z,21.10
2023-05-12T17:26:19.526Z,21.10
2023-05-12T17:28:47.303Z,21.10
2023-05-12T17:31:15.072Z,21.10
2023-05-12T17:33:42.874Z,21.10
2023-05-12T17:36:13.131Z,21.10
2023-05-12T17:38:41.952Z,21.10
2023-05-12T17:41:09.791Z,21.10
2023-05-12T17:43:39.246Z,21.00
2023-05-12T17:46:07.689Z,21.00
2023-05-12T17:48:35.447Z,21.00
2023-05-12T17:51:04.030Z,21.00
2023-05-12T17:53:32.197Z,20.90
2023-05-12T17:56:01.305Z,20.90
2023-05-12T17:58:29.084Z,20.90
2023-05-12T18:00:58.252Z,20.90
2023-05-12T18:03:26.258Z,20.90
2023-05-12T18:05:55.097Z,20.80
2023-05-12T18:08:23.274Z,20.80
2023-05-12T18:10:51.226Z,20.90
2023-05-12T18:13:19.428Z,20.90
2023-05-12T18:15:49.163Z,20.90
2023-05-12T18:18:18.621Z,20.90
2023-05-12T18:20:46.663Z,20.90
2023-05-12T18:23:14.709Z,20.90
2023-05-12T18:25:42.820Z,20.90
2023-05-12T18:28:10.745Z,20.80
2023-05-12T18:30:40.075Z,20.80
2023-05-12T18:33:12.673Z,20.80
2023-05-12T18:35:42.122Z,20.80
2023-05-12T18:38:11.859Z,20.80
2023-05-12T18:40:41.195Z,20.80
2023-05-12T18:43:09.062Z,20.70
2023-05-12T18:45:39.757Z,20.70
2023-05-12T18:48:08.195Z,20.70
2023-05-12T18:50:39.101Z,20.70
2023-05-12T18:53:09.355Z,20.70
2023-05-12T18:55:37.191Z,20.70
2023-05-12T18:58:06.987Z,20.60
2023-05-12T19:00:35.612Z,20.60
2023-05-12T19:03:03.871Z,20.60
2023-05-12T19:05:31.961Z,20.60
2023-05-12T19:07:59.959Z,20.60
2023-05-12T19:10:37.901Z,20.50
2023-05-12T19:13:08.018Z,20.50
2023-05-12T19:15:36.139Z,20.50
2023-05-12T19:18:05.696Z,20.40
2023-05-12T19:20:39.172Z,20.40
2023-05-12T19:23:08.371Z,20.40
2023-05-12T19:25:37.759Z,20.30
2023-05-12T19:28:06.053Z,20.30
2023-05-12T19:30:35.235Z,20.30
2023-05-12T19:33:03.189Z,20.20
2023-05-12T19:35:31.105Z,20.20
2023-05-12T19:37:59.096Z,20.20
2023-05-12T19:40:26.958Z,20.10
2023-05-12T19:42:56.377Z,20.10
2023-05-12T19:45:24.262Z,20.00
2023-05-12T19:47:54.089Z,20.00
2023-05-12T19:50:22.021Z,20.00
2023-05-12T19:52:49.927Z,19.90
2023-05-12T19:55:18.014Z,19.90
2023-05-12T19:57:45.868Z,19.90
2023-05-12T20:00:15.831Z,19.80
2023-05-12T20:02:43.797Z,19.80
2023-05-12T20:05:13.177Z,19.80
2023-05-12T20:07:40.993Z,19.70
2023-05-12T20:10:09.838Z,19.70
2023-05-12T20:12:37.917Z,19.70
2023-05-12T20:15:06.749Z,19.60
2023-05-12T20:17:35.986Z,19.70
2023-05-12T20:20:04.225Z,19.60
2023-05-12T20:22:33.409Z,19.50
2023-05-12T20:25:04.277Z,19.50
2023-05-12T20:27:32.250Z,19.50
2023-05-12T20:30:00.195Z,19.40
2023-05-12T20:32:27.990Z,19.40
2023-05-12T20:34:57.081Z,19.40
2023-05-12T20:37:25.563Z,19.40
2023-05-12T20:39:53.928Z,19.30
2023-05-12T20:42:21.844Z,19.30
2023-05-12T20:44:49.968Z,19.30
2023-05-12T20:47:17.774Z,19.20
2023-05-12T20:49:45.566Z,19.20
2023-05-12T20:52:14.635Z,19.20
2023-05-12T20:54:42.748Z,19.10
2023-05-12T20:57:12.260Z,19.10
2023-05-12T20:59:39.995Z,19.10
2023-05-12T21:02:08.069Z,19.00
2023-05-12T21:04:36.060Z,19.00
2023-05-12T21:07:04.383Z,18.90
2023-05-12T21:09:33.472Z,18.90
2023-05-12T21:12:01.908Z,18.90
2023-05-12T21:14:29.688Z,18.80
2023-05-12T21:16:57.508Z,18.90
2023-05-12T21:19:25.430Z,18.80
2023-05-12T21:21:53.179Z,18.80
2023-05-12T21:24:20.933Z,18.80
2023-05-12T21:26:50.345Z,18.70
2023-05-12T21:29:18.085Z,18.70
2023-05-12T21:31:47.352Z,18.70
2023-05-12T21:34:15.228Z,18.60
2023-05-12T21:36:42.956Z,18.60
2023-05-12T21:39:10.865Z,18.60
2023-05-12T21:41:38.713Z,18.60
2023-05-12T21:44:10.406Z,18.60
2023-05-12T21:46:39.037Z,18.50
2023-05-12T21:49:06.851Z,18.40
2023-05-12T21:51:34.893Z,18.40
2023-05-12T21:54:02.741Z,18.40
2023-05-12T21:56:30.497Z,18.40
2023-05-12T21:58:58.230Z,18.40
2023-05-12T22:01:27.375Z,18.40
2023-05-12T22:03:55.203Z,18.30
2023-05-12T22:06:22.928Z,18.30
2023-05-12T22:08:50.679Z,18.30
2023-05-12T22:11:18.455Z,18.30
2023-05-12T22:13:46.228Z,18.20
2023-05-12T22:16:14.032Z,18.20
2023-05-12T22:18:43.819Z,18.20
2023-05-12T22:21:12.008Z,18.10
2023-05-12T22:23:41.703Z,18.20
2023-05-12T22:26:09.464Z,18.10
2023-05-12T22:28:37.304Z,18.10
2023-05-12T22:31:05.399Z,18.10
2023-05-12T22:33:33.360Z,18.00
2023-05-12T22:36:03.047Z,18.00
2023-05-12T22:38:30.895Z,18.00
2023-05-12T22:40:58.952Z,18.00
2023-05-12T22:43:26.813Z,18.00
2023-05-12T22:45:55.777Z,17.90
2023-05-12T22:48:23.876Z,17.90
2023-05-12T22:50:54.935Z,17.90
2023-05-12T22:53:24.009Z,17.90
2023-05-12T22:55:51.771Z,17.80
2023-05-12T22:58:19.486Z,17.80
2023-05-12T23:00:47.390Z,17.80
2023-05-12T23:03:15.329Z,17.80
2023-05-12T23:05:43.105Z,17.70
2023-05-12T23:08:10.840Z,17.70
2023-05-12T23:10:40.233Z,17.70
2023-05-12T23:13:07.951Z,17.70
2023-05-12T23:15:35.824Z,17.60
2023-05-12T23:18:03.641Z,17.70
2023-05-12T23:20:31.871Z,17.60
2023-05-12T23:22:59.904Z,17.60
2023-05-12T23:25:27.693Z,17.60
2023-05-12T23:27:56.796Z,17.60
2023-05-12T23:30:24.718Z,17.50
2023-05-12T23:32:52.576Z,17.50
2023-05-12T23:35:20.409Z,17.50
2023-05-12T23:37:48.243Z,17.50
2023-05-12T23:40:16.007Z,17.40
2023-05-12T23:42:43.798Z,17.40
2023-05-12T23:45:13.149Z,17.40
2023-05-12T23:47:40.931Z,17.40
2023-05-12T23:50:09.651Z,17.40
2023-05-12T23:52:37.398Z,17.30
2023-05-12T23:55:05.595Z,17.30
2023-05-12T23:57:35.381Z,17.30
